Time;durP1;ratioP1;P1;durP2;ratioP2;P2;SDS_P1;SDS_P2;PMS_P1;PMS_P2;Temp;Humidity;BMP_temperature;BMP_pressure;BME280_temperature;BME280_humidity;BME280_pressure;Samples;Min_cycle;Max_cycle;Signal;HPM_P1;HPM_P2
2022/08/30 00:02:09;;;;;;;0.77;0.77;;;;;17.70;96275.00;;;;5137104;28;20659;-61
2022/08/30 00:04:36;;;;;;;0.70;0.70;;;;;17.80;96275.00;;;;5137029;28;20228;-62
2022/08/30 00:07:03;;;;;;;0.60;0.60;;;;;17.70;96288.00;;;;5137185;28;20194;-63
2022/08/30 00:09:31;;;;;;;0.70;0.70;;;;;17.70;96281.00;;;;5137264;28;20221;-61
2022/08/30 00:11:59;;;;;;;0.63;0.63;;;;;17.60;96280.00;;;;5122693;28;20241;-63
2022/08/30 00:14:26;;;;;;;1.27;1.27;;;;;17.50;96278.00;;;;5145664;28;20503;-58
2022/08/30 00:16:53;;;;;;;0.77;0.77;;;;;17.40;96273.00;;;;5136809;28;20252;-60
2022/08/30 00:19:20;;;;;;;1.70;1.13;;;;;17.40;96281.00;;;;5136748;28;20209;-61
2022/08/30 00:21:49;;;;;;;1.20;1.00;;;;;17.40;96288.00;;;;5136741;28;20220;-61
2022/08/30 00:24:19;;;;;;;2.60;2.07;;;;;17.30;96283.00;;;;5118576;28;20209;-61
2022/08/30 00:26:48;;;;;;;0.53;0.53;;;;;17.40;96279.00;;;;5136551;28;20220;-61
2022/08/30 00:29:15;;;;;;;0.60;0.60;;;;;17.20;96282.00;;;;5136659;28;20347;-60
2022/08/30 00:31:42;;;;;;;1.23;1.23;;;;;17.20;96285.00;;;;5136655;28;20229;-60
2022/08/30 00:34:09;;;;;;;0.87;0.87;;;;;17.20;96286.00;;;;5118432;28;20204;-60
2022/08/30 00:36:36;;;;;;;1.50;1.27;;;;;17.30;96289.00;;;;5136776;28;20205;-61
2022/08/30 00:39:04;;;;;;;0.60;0.60;;;;;17.30;96286.00;;;;5136552;28;20213;-64
2022/08/30 00:41:31;;;;;;;0.73;0.73;;;;;17.30;96286.00;;;;5136656;28;20257;-61
2022/08/30 00:43:58;;;;;;;1.17;1.07;;;;;17.30;96290.00;;;;5136319;28;20527;-61
2022/08/30 00:46:26;;;;;;;0.90;0.90;;;;;17.30;96284.00;;;;5136372;28;20198;-60
2022/08/30 00:48:54;;;;;;;0.97;0.97;;;;;17.20;96287.00;;;;5118090;28;20221;-61
2022/08/30 00:51:25;;;;;;;0.80;0.80;;;;;17.20;96282.00;;;;5136193;28;20213;-61
2022/08/30 00:53:54;;;;;;;1.60;1.50;;;;;17.20;96285.00;;;;5136091;28;20535;-58
2022/08/30 00:56:22;;;;;;;1.13;1.13;;;;;17.20;96290.00;;;;5136254;28;20205;-61
2022/08/30 00:58:54;;;;;;;1.00;1.00;;;;;17.00;96287.00;;;;5136137;28;20204;-61
2022/08/30 01:01:22;;;;;;;0.90;0.90;;;;;17.10;96295.00;;;;5136265;28;20257;-62
2022/08/30 01:03:50;;;;;;;1.00;1.00;;;;;17.00;96292.00;;;;5136068;28;20551;-61
2022/08/30 01:06:17;;;;;;;0.70;0.70;;;;;17.00;96286.00;;;;5135915;28;20213;-61
2022/08/30 01:08:45;;;;;;;1.00;1.00;;;;;16.90;96289.00;;;;5117887;28;20201;-61
2022/08/30 01:11:14;;;;;;;2.00;0.80;;;;;16.90;96290.00;;;;5117708;28;20621;-61
2022/08/30 01:13:41;;;;;;;1.90;1.07;;;;;17.00;96289.00;;;;5135818;28;20209;-61
2022/08/30 01:16:08;;;;;;;1.43;1.37;;;;;17.00;96282.00;;;;5135814;28;20231;-61
2022/08/30 01:18:36;;;;;;;0.83;0.83;;;;;17.00;96280.00;;;;5117702;28;20213;-62
2022/08/30 01:21:12;;;;;;;0.70;0.70;;;;;17.10;96283.00;;;;5135792;28;20231;-60
2022/08/30 01:23:43;;;;;;;0.60;0.60;;;;;17.00;96283.00;;;;5135694;28;20228;-61
2022/08/30 01:26:12;;;;;;;1.27;0.93;;;;;16.80;96287.00;;;;5135992;28;20194;-61
2022/08/30 01:28:40;;;;;;;0.80;0.80;;;;;16.80;96295.00;;;;5135580;28;20223;-59
2022/08/30 01:31:08;;;;;;;1.10;1.10;;;;;16.70;96298.00;;;;5117469;28;20221;-61
2022/08/30 01:33:37;;;;;;;0.60;0.60;;;;;16.70;96294.00;;;;5135626;28;20225;-61
2022/08/30 01:36:07;;;;;;;5.03;1.07;;;;;16.70;96292.00;;;;5135608;28;20528;-61
2022/08/30 01:38:36;;;;;;;1.27;1.27;;;;;16.60;96299.00;;;;5135510;28;20276;-60
2022/08/30 01:41:11;;;;;;;0.83;0.83;;;;;16.50;96292.00;;;;5135741;28;20186;-63
2022/08/30 01:43:39;;;;;;;0.63;0.63;;;;;16.50;96289.00;;;;5135678;28;20197;-61
2022/08/30 01:46:06;;;;;;;1.07;1.07;;;;;16.40;96291.00;;;;5135594;28;20224;-63
2022/08/30 01:48:33;;;;;;;0.97;0.97;;;;;16.30;96287.00;;;;5135840;28;20535;-61
2022/08/30 01:51:00;;;;;;;0.90;0.90;;;;;16.50;96280.00;;;;5135123;28;20671;-61
2022/08/30 01:53:27;;;;;;;1.03;0.90;;;;;16.50;96291.00;;;;5135219;28;20193;-61
2022/08/30 01:55:57;;;;;;;0.73;0.73;;;;;16.50;96281.00;;;;5135114;28;20216;-61
2022/08/30 01:58:24;;;;;;;1.00;1.00;;;;;16.50;96285.00;;;;5135113;28;20197;-61
2022/08/30 02:00:51;;;;;;;1.20;1.20;;;;;16.40;96275.00;;;;5135151;28;20272;-61
2022/08/30 02:03:18;;;;;;;0.67;0.67;;;;;16.40;96281.00;;;;5135057;28;20198;-61
2022/08/30 02:05:47;;;;;;;0.87;0.87;;;;;16.40;96275.00;;;;5135032;28;20660;-61
2022/08/30 02:08:14;;;;;;;0.90;0.90;;;;;16.40;96277.00;;;;5135074;28;20667;-61
2022/08/30 02:10:41;;;;;;;1.13;1.13;;;;;16.30;96288.00;;;;5134912;28;20204;-61
2022/08/30 02:13:08;;;;;;;1.00;1.00;;;;;16.30;96293.00;;;;5134981;28;20247;-60
2022/08/30 02:15:36;;;;;;;1.00;1.00;;;;;16.30;96290.00;;;;5134938;28;20204;-61
2022/08/30 02:18:05;;;;;;;0.37;0.37;;;;;16.30;96280.00;;;;5134949;28;20225;-61
2022/08/30 02:20:31;;;;;;;0.90;0.90;;;;;16.30;96289.00;;;;5134363;27;20194;-63
2022/08/30 02:22:58;;;;;;;0.77;0.77;;;;;16.10;96284.00;;;;5134833;28;20189;-61
2022/08/30 02:25:25;;;;;;;1.20;1.20;;;;;16.20;96288.00;;;;5134745;28;20230;-61
2022/08/30 02:27:52;;;;;;;1.13;1.13;;;;;16.20;96275.00;;;;5134773;28;20197;-61
2022/08/30 02:30:21;;;;;;;1.63;1.53;;;;;16.20;96280.00;;;;5134602;28;20218;-60
2022/08/30 02:32:48;;;;;;;0.93;0.93;;;;;16.20;96275.00;;;;5134864;28;20228;-61
2022/08/30 02:35:15;;;;;;;1.37;1.33;;;;;16.20;96277.00;;;;5116407;28;20519;-61
2022/08/30 02:37:44;;;;;;;0.80;0.80;;;;;16.20;96281.00;;;;5134572;28;20189;-61
2022/08/30 02:40:11;;;;;;;1.23;1.13;;;;;16.10;96280.00;;;;5134473;28;20650;-61
2022/08/30 02:42:40;;;;;;;1.20;1.17;;;;;16.10;96273.00;;;;5134536;28;20209;-61
2022/08/30 02:45:08;;;;;;;0.93;0.93;;;;;16.10;96264.00;;;;5134464;28;20664;-60
2022/08/30 02:47:35;;;;;;;0.90;0.90;;;;;16.10;96255.00;;;;5134452;28;20308;-61
2022/08/30 02:50:05;;;;;;;0.70;0.70;;;;;16.00;96260.00;;;;5134486;28;20209;-61
2022/08/30 02:52:32;;;;;;;0.97;0.97;;;;;15.90;96256.00;;;;5134281;28;20258;-61
2022/08/30 02:54:59;;;;;;;1.53;1.43;;;;;15.90;96255.00;;;;5134411;28;20220;-61
2022/08/30 02:57:26;;;;;;;1.17;1.17;;;;;15.80;96243.00;;;;5134376;28;20240;-61
2022/08/30 02:59:53;;;;;;;0.93;0.93;;;;;15.80;96241.00;;;;5134398;28;20213;-61
2022/08/30 03:02:20;;;;;;;1.63;1.53;;;;;15.70;96236.00;;;;5134364;28;20504;-60
2022/08/30 03:04:47;;;;;;;1.00;1.00;;;;;15.60;96237.00;;;;5134321;28;20197;-60
2022/08/30 03:07:15;;;;;;;0.60;0.60;;;;;15.70;96237.00;;;;5134221;28;20204;-60
2022/08/30 03:09:42;;;;;;;1.00;1.00;;;;;15.70;96240.00;;;;5134184;28;20205;-61
2022/08/30 03:12:09;;;;;;;0.70;0.70;;;;;15.70;96239.00;;;;5134131;28;20255;-60
2022/08/30 03:14:37;;;;;;;0.80;0.80;;;;;15.70;96250.00;;;;5134155;28;20867;-60
2022/08/30 03:17:06;;;;;;;1.77;1.70;;;;;15.60;96248.00;;;;5116002;28;20215;-61
2022/08/30 03:19:35;;;;;;;0.80;0.80;;;;;15.50;96242.00;;;;5134179;28;20217;-60
2022/08/30 03:22:02;;;;;;;0.67;0.67;;;;;15.40;96230.00;;;;5134102;28;20194;-61
2022/08/30 03:24:30;;;;;;;0.80;0.80;;;;;15.40;96236.00;;;;5115899;28;20311;-61
2022/08/30 03:26:57;;;;;;;1.17;1.17;;;;;15.40;96239.00;;;;5115845;28;20302;-60
2022/08/30 03:29:24;;;;;;;0.70;0.70;;;;;15.30;96233.00;;;;5133915;28;20293;-60
2022/08/30 03:31:51;;;;;;;0.70;0.70;;;;;15.30;96231.00;;;;5134069;27;20225;-58
2022/08/30 03:34:18;;;;;;;0.70;0.70;;;;;15.30;96233.00;;;;5118854;28;20635;-60
2022/08/30 03:36:47;;;;;;;1.13;1.10;;;;;15.30;96236.00;;;;5137431;28;20193;-60
2022/08/30 03:39:14;;;;;;;0.90;0.90;;;;;15.30;96228.00;;;;5137350;28;20227;-61
2022/08/30 03:41:41;;;;;;;1.00;1.00;;;;;15.20;96222.00;;;;5137445;28;20201;-60
2022/08/30 03:44:10;;;;;;;1.27;1.27;;;;;15.20;96229.00;;;;5137309;28;20201;-61
2022/08/30 03:46:37;;;;;;;1.83;1.73;;;;;15.20;96232.00;;;;5137336;28;20194;-60
2022/08/30 03:49:04;;;;;;;0.87;0.87;;;;;15.20;96231.00;;;;5137209;28;20186;-60
2022/08/30 03:51:31;;;;;;;0.80;0.80;;;;;15.30;96240.00;;;;5137134;28;20232;-60
2022/08/30 03:53:58;;;;;;;1.17;1.17;;;;;15.20;96234.00;;;;5137204;28;20193;-60
2022/08/30 03:56:25;;;;;;;0.70;0.70;;;;;15.10;96231.00;;;;5137215;28;20198;-60
2022/08/30 03:58:53;;;;;;;1.20;1.20;;;;;15.20;96227.00;;;;5137159;28;20193;-60
2022/08/30 04:01:23;;;;;;;1.10;1.10;;;;;15.10;96219.00;;;;5136987;28;20209;-60
2022/08/30 04:03:49;;;;;;;1.20;1.20;;;;;15.10;96227.00;;;;5137079;28;20189;-60
2022/08/30 04:06:16;;;;;;;1.00;1.00;;;;;15.10;96228.00;;;;5137009;28;20193;-59
2022/08/30 04:08:44;;;;;;;1.27;1.27;;;;;15.20;96228.00;;;;5137036;28;20202;-58
2022/08/30 04:11:13;;;;;;;2.00;1.53;;;;;15.10;96230.00;;;;5136743;28;20225;-60
2022/08/30 04:13:40;;;;;;;2.00;1.90;;;;;15.00;96230.00;;;;5136959;28;20193;-61
2022/08/30 04:16:08;;;;;;;1.27;1.17;;;;;15.00;96242.00;;;;5136668;28;20285;-60
2022/08/30 04:18:35;;;;;;;0.57;0.57;;;;;14.80;96240.00;;;;5136783;28;20198;-59
2022/08/30 04:21:03;;;;;;;1.47;1.40;;;;;14.90;96240.00;;;;5136600;28;20239;-59
2022/08/30 04:23:32;;;;;;;0.97;0.97;;;;;14.90;96245.00;;;;5136684;28;20201;-58
2022/08/30 04:25:59;;;;;;;1.40;1.33;;;;;14.90;96241.00;;;;5136844;28;20257;-60
2022/08/30 04:28:28;;;;;;;0.60;0.60;;;;;14.90;96244.00;;;;5136651;28;20238;-60
2022/08/30 04:30:55;;;;;;;0.60;0.60;;;;;14.90;96236.00;;;;5136511;28;20255;-60
2022/08/30 04:33:23;;;;;;;1.50;1.40;;;;;14.90;96239.00;;;;5137190;28;20636;-63
2022/08/30 04:35:50;;;;;;;0.93;0.93;;;;;14.90;96237.00;;;;5136720;28;20221;-60
2022/08/30 04:38:17;;;;;;;1.57;1.47;;;;;14.90;96236.00;;;;5136484;28;20246;-60
2022/08/30 04:40:47;;;;;;;0.80;0.80;;;;;15.00;96241.00;;;;5136456;28;20217;-62
2022/08/30 04:43:16;;;;;;;1.07;1.07;;;;;15.00;96242.00;;;;5136233;27;20509;-60
2022/08/30 04:45:43;;;;;;;1.07;1.07;;;;;15.00;96236.00;;;;5136300;28;20663;-60
2022/08/30 04:48:10;;;;;;;1.50;1.43;;;;;15.00;96250.00;;;;5136374;28;20185;-60
2022/08/30 04:50:37;;;;;;;1.00;1.00;;;;;15.00;96255.00;;;;5136225;28;20247;-60
2022/08/30 04:53:04;;;;;;;1.23;1.23;;;;;15.00;96261.00;;;;5136223;28;20224;-60
2022/08/30 04:55:33;;;;;;;1.00;1.00;;;;;15.00;96260.00;;;;5136146;28;20270;-59
2022/08/30 04:58:00;;;;;;;0.60;0.60;;;;;15.10;96256.00;;;;5136388;28;20195;-60
2022/08/30 05:00:27;;;;;;;1.33;1.23;;;;;15.10;96263.00;;;;5136088;28;20632;-60
2022/08/30 05:02:54;;;;;;;4.57;1.73;;;;;15.00;96263.00;;;;5136180;28;20280;-60
2022/08/30 05:05:38;;;;;;;1.23;1.13;;;;;15.00;96267.00;;;;5136104;28;20276;-60
2022/08/30 05:08:06;;;;;;;0.90;0.90;;;;;15.00;96271.00;;;;5136020;28;20558;-61
2022/08/30 05:10:38;;;;;;;1.13;1.13;;;;;15.20;96273.00;;;;5135861;28;20284;-60
2022/08/30 05:13:05;;;;;;;0.77;0.77;;;;;15.20;96269.00;;;;5135901;28;20221;-61
2022/08/30 05:15:35;;;;;;;0.97;0.97;;;;;15.30;96261.00;;;;5135835;28;20580;-60
2022/08/30 05:18:06;;;;;;;1.47;1.37;;;;;15.20;96260.00;;;;5135954;28;20295;-61
2022/08/30 05:20:33;;;;;;;1.03;1.03;;;;;15.20;96266.00;;;;5135758;28;20213;-61
2022/08/30 05:23:01;;;;;;;0.80;0.80;;;;;15.20;96261.00;;;;5135842;28;20809;-61
2022/08/30 05:25:30;;;;;;;0.70;0.70;;;;;15.20;96272.00;;;;5117794;28;20733;-61
2022/08/30 05:27:57;;;;;;;1.77;1.67;;;;;15.20;96270.00;;;;5135711;28;20269;-61
2022/08/30 05:30:26;;;;;;;1.03;1.03;;;;;15.10;96266.00;;;;5135701;28;20213;-60
2022/08/30 05:32:53;;;;;;;1.73;1.63;;;;;15.10;96263.00;;;;5135479;28;20747;-57
2022/08/30 05:35:21;;;;;;;1.20;1.20;;;;;15.20;96259.00;;;;5135524;28;20193;-59
2022/08/30 05:37:49;;;;;;;0.80;0.80;;;;;15.30;96254.00;;;;5135602;28;20203;-60
2022/08/30 05:40:16;;;;;;;1.63;1.50;;;;;15.40;96271.00;;;;5135642;28;20610;-60
2022/08/30 05:42:44;;;;;;;1.33;1.30;;;;;15.40;96270.00;;;;5135640;28;20550;-60
2022/08/30 05:45:13;;;;;;;0.83;0.83;;;;;15.40;96274.00;;;;5135498;28;20189;-60
2022/08/30 05:47:42;;;;;;;0.73;0.73;;;;;15.50;96281.00;;;;5135372;28;20186;-59
2022/08/30 05:50:10;;;;;;;1.10;1.10;;;;;15.60;96277.00;;;;5135350;28;20328;-59
2022/08/30 05:52:38;;;;;;;1.17;1.17;;;;;15.70;96287.00;;;;5135189;28;20278;-60
2022/08/30 05:55:07;;;;;;;1.00;1.00;;;;;15.80;96284.00;;;;5134448;27;20249;-60
2022/08/30 05:57:35;;;;;;;1.97;1.53;;;;;16.10;96280.00;;;;5135169;28;20217;-60
2022/08/30 06:00:05;;;;;;;1.00;1.00;;;;;16.20;96284.00;;;;5135317;28;20193;-60
2022/08/30 06:02:32;;;;;;;0.80;0.80;;;;;16.40;96275.00;;;;5135304;28;20311;-60
2022/08/30 06:04:58;;;;;;;1.23;1.23;;;;;16.60;96279.00;;;;5135330;28;20200;-60
2022/08/30 06:07:25;;;;;;;0.93;0.93;;;;;16.70;96268.00;;;;5135185;28;20232;-60
2022/08/30 06:09:52;;;;;;;0.60;0.60;;;;;16.80;96267.00;;;;5135040;28;20250;-62
2022/08/30 06:12:19;;;;;;;0.67;0.67;;;;;16.90;96268.00;;;;5134843;28;20668;-60
2022/08/30 06:14:46;;;;;;;1.23;1.23;;;;;16.80;96266.00;;;;5135019;28;20202;-59
2022/08/30 06:17:14;;;;;;;0.90;0.90;;;;;16.90;96264.00;;;;5134878;28;20190;-57
2022/08/30 06:19:41;;;;;;;0.83;0.83;;;;;16.80;96264.00;;;;5135032;28;20485;-61
2022/08/30 06:22:07;;;;;;;0.77;0.77;;;;;16.60;96273.00;;;;5116818;28;20221;-60
2022/08/30 06:24:35;;;;;;;4.33;1.53;;;;;16.70;96273.00;;;;5134890;28;20296;-63
2022/08/30 06:27:02;;;;;;;1.13;1.13;;;;;16.80;96272.00;;;;5116709;28;20205;-63
2022/08/30 06:29:29;;;;;;;1.27;1.27;;;;;16.80;96271.00;;;;5116456;28;20241;-61
2022/08/30 06:31:57;;;;;;;1.07;1.07;;;;;16.70;96267.00;;;;5116497;28;20328;-61
2022/08/30 06:34:26;;;;;;;0.90;0.90;;;;;16.80;96271.00;;;;5134491;28;20224;-61
2022/08/30 06:36:53;;;;;;;1.00;1.00;;;;;16.80;96269.00;;;;5116578;28;20200;-61
2022/08/30 06:39:20;;;;;;;0.77;0.77;;;;;16.80;96267.00;;;;5134696;28;20212;-61
2022/08/30 06:41:47;;;;;;;0.87;0.87;;;;;16.90;96272.00;;;;5134590;28;20220;-63
2022/08/30 06:44:13;;;;;;;1.17;1.07;;;;;16.90;96264.00;;;;5134608;28;20200;-62
2022/08/30 06:46:40;;;;;;;1.13;1.13;;;;;17.10;96279.00;;;;5134484;28;20213;-61
2022/08/30 06:49:07;;;;;;;0.90;0.90;;;;;17.30;96281.00;;;;5134422;28;20257;-61
2022/08/30 06:51:37;;;;;;;1.70;1.60;;;;;17.30;96275.00;;;;5116199;28;20731;-61
2022/08/30 06:54:06;;;;;;;1.20;1.20;;;;;17.50;96281.00;;;;5134320;28;20227;-61
2022/08/30 06:56:33;;;;;;;2.60;2.43;;;;;17.60;96270.00;;;;5116185;28;20205;-60
2022/08/30 06:59:00;;;;;;;1.30;1.30;;;;;17.70;96271.00;;;;5134339;28;20219;-61
2022/08/30 07:01:28;;;;;;;2.07;1.97;;;;;17.90;96274.00;;;;5134258;28;20274;-61
2022/08/30 07:03:56;;;;;;;1.20;1.20;;;;;18.00;96268.00;;;;5134013;28;20225;-62
2022/08/30 07:06:24;;;;;;;1.30;1.30;;;;;18.20;96276.00;;;;5134569;27;20205;-62
2022/08/30 07:08:52;;;;;;;1.17;1.13;;;;;18.20;96282.00;;;;5137847;28;20224;-62
2022/08/30 07:11:30;;;;;;;1.07;1.07;;;;;18.40;96284.00;;;;5137711;28;20273;-64
2022/08/30 07:13:57;;;;;;;1.53;1.50;;;;;18.40;96288.00;;;;5137800;28;20284;-62
2022/08/30 07:16:27;;;;;;;0.90;0.90;;;;;18.50;96287.00;;;;5137696;28;20278;-62
2022/08/30 07:18:55;;;;;;;2.63;1.47;;;;;18.50;96282.00;;;;5137677;28;20696;-62
2022/08/30 07:21:24;;;;;;;1.20;1.20;;;;;18.50;96282.00;;;;5137678;28;20225;-62
2022/08/30 07:23:56;;;;;;;2.50;1.80;;;;;18.60;96274.00;;;;5137684;28;20205;-62
2022/08/30 07:26:25;;;;;;;1.50;1.40;;;;;18.70;96278.00;;;;5137613;28;20184;-62
2022/08/30 07:28:53;;;;;;;1.07;1.07;;;;;18.80;96273.00;;;;5137577;28;20193;-62
2022/08/30 07:31:20;;;;;;;3.03;2.47;;;;;18.90;96279.00;;;;5137474;28;20193;-63
2022/08/30 07:33:49;;;;;;;0.87;0.87;;;;;19.10;96277.00;;;;5137401;28;20217;-62
2022/08/30 07:36:17;;;;;;;1.60;1.50;;;;;19.20;96284.00;;;;5137430;28;20296;-62
2022/08/30 07:38:45;;;;;;;2.20;1.57;;;;;19.20;96283.00;;;;5137252;28;20256;-62
2022/08/30 07:41:18;;;;;;;1.93;1.83;;;;;19.50;96289.00;;;;5137289;28;20205;-62
2022/08/30 07:43:45;;;;;;;2.43;2.23;;;;;19.50;96287.00;;;;5137329;28;20222;-61
2022/08/30 07:46:14;;;;;;;1.80;1.70;;;;;19.40;96288.00;;;;5137318;28;20201;-62
2022/08/30 07:48:41;;;;;;;0.90;0.90;;;;;19.70;96289.00;;;;5137274;28;20198;-62
2022/08/30 07:51:13;;;;;;;1.20;1.10;;;;;19.90;96293.00;;;;5137163;28;20292;-62
2022/08/30 07:53:40;;;;;;;0.80;0.80;;;;;20.00;96291.00;;;;5137236;28;20196;-62
2022/08/30 07:56:07;;;;;;;0.70;0.70;;;;;20.00;96287.00;;;;5137049;28;20227;-62
2022/08/30 07:58:36;;;;;;;1.60;1.50;;;;;20.20;96279.00;;;;5137052;28;20307;-62
2022/08/30 08:01:03;;;;;;;2.00;1.40;;;;;20.10;96276.00;;;;5137080;28;20218;-65
2022/08/30 08:03:31;;;;;;;2.00;1.50;;;;;20.30;96275.00;;;;5136940;28;20197;-62
2022/08/30 08:06:00;;;;;;;0.70;0.70;;;;;20.50;96276.00;;;;5136932;28;20237;-62
2022/08/30 08:08:27;;;;;;;1.30;1.20;;;;;20.70;96277.00;;;;5136809;28;20559;-62
2022/08/30 08:10:54;;;;;;;1.10;1.10;;;;;20.80;96275.00;;;;5136998;28;20280;-62
2022/08/30 08:13:22;;;;;;;1.17;1.17;;;;;20.80;96269.00;;;;5118556;28;20377;-62
2022/08/30 08:15:52;;;;;;;1.97;1.87;;;;;21.10;96277.00;;;;5137004;28;20205;-62
2022/08/30 08:18:19;;;;;;;0.80;0.80;;;;;21.30;96279.00;;;;5136082;27;20196;-62
2022/08/30 08:20:46;;;;;;;2.40;1.67;;;;;21.40;96278.00;;;;5136800;28;20185;-63
2022/08/30 08:23:13;;;;;;;1.30;1.30;;;;;21.60;96270.00;;;;5118472;28;20235;-62
2022/08/30 08:25:42;;;;;;;1.60;1.50;;;;;21.80;96280.00;;;;5136724;28;20217;-62
2022/08/30 08:28:09;;;;;;;1.03;1.03;;;;;21.80;96275.00;;;;5136721;28;20640;-62
2022/08/30 08:30:37;;;;;;;1.73;1.63;;;;;21.90;96270.00;;;;5136542;28;20196;-62
2022/08/30 08:33:06;;;;;;;0.68;0.68;;;;;21.90;96275.00;;;;5136814;28;20225;-62
2022/08/30 08:35:35;;;;;;;1.00;1.00;;;;;22.20;96276.00;;;;5136448;28;20197;-62
2022/08/30 08:38:03;;;;;;;1.42;1.35;;;;;22.00;96271.00;;;;5136407;28;20224;-62
2022/08/30 08:40:37;;;;;;;0.93;0.93;;;;;22.30;96275.00;;;;5118286;28;20201;-62
2022/08/30 08:43:10;;;;;;;1.60;1.20;;;;;22.40;96274.00;;;;5136309;28;20227;-62
2022/08/30 08:45:47;;;;;;;1.10;1.00;;;;;22.60;96268.00;;;;5136366;28;20193;-62
2022/08/30 08:48:33;;;;;;;1.30;1.20;;;;;22.80;96269.00;;;;5136430;28;20189;-63
2022/08/30 08:53:55;;;;;;;1.13;1.13;;;;;23.30;96266.00;;;;5136190;28;20258;-63
2022/08/30 08:56:22;;;;;;;2.65;1.10;;;;;23.30;96260.00;;;;5118261;28;20272;-62
2022/08/30 08:58:51;;;;;;;1.65;1.55;;;;;23.40;96257.00;;;;5136173;28;20197;-62
2022/08/30 09:01:23;;;;;;;1.35;1.27;;;;;23.40;96257.00;;;;5136112;28;20193;-62
2022/08/30 09:03:51;;;;;;;1.73;1.63;;;;;23.70;96255.00;;;;5136100;28;20189;-62
2022/08/30 09:06:43;;;;;;;1.17;1.17;;;;;23.80;96260.00;;;;5135952;28;20295;-62
2022/08/30 09:09:11;;;;;;;1.88;1.77;;;;;24.00;96253.00;;;;5136070;28;20286;-62
2022/08/30 09:11:38;;;;;;;1.38;1.38;;;;;24.00;96254.00;;;;5135820;28;20238;-61
2022/08/30 09:14:12;;;;;;;1.65;1.55;;;;;24.10;96257.00;;;;5135879;28;20194;-61
2022/08/30 09:16:48;;;;;;;1.13;1.13;;;;;24.10;96252.00;;;;5135841;28;20228;-62
2022/08/30 09:19:37;;;;;;;0.95;0.95;;;;;24.20;96252.00;;;;5135781;28;20253;-62
2022/08/30 09:22:24;;;;;;;2.15;1.50;;;;;24.50;96248.00;;;;5135845;28;20194;-62
2022/08/30 09:24:54;;;;;;;1.30;1.27;;;24.90;44.10;24.50;96248.00;;;;5135949;28;20208;-63
2022/08/30 09:27:26;;;;;;;1.77;1.52;;;24.90;43.30;24.60;96243.00;;;;5135722;28;20197;-62
2022/08/30 09:30:04;;;;;;;1.05;1.05;;;24.90;43.60;24.70;96237.00;;;;5134658;27;20221;-62
2022/08/30 09:32:36;;;;;;;0.70;0.70;;;25.00;43.30;24.80;96242.00;;;;5135542;28;20270;-62
2022/08/30 09:35:08;;;;;;;0.85;0.85;;;25.10;43.00;24.60;96248.00;;;;5135615;28;20263;-62
2022/08/30 09:37:43;;;;;;;1.33;1.23;;;25.00;43.00;24.90;96248.00;;;;5135676;28;20288;-62
2022/08/30 09:40:16;;;;;;;1.92;1.83;;;;;24.90;96243.00;;;;5135320;28;20221;-62
2022/08/30 09:43:01;;;;;;;0.77;0.77;;;25.30;39.80;24.80;96237.00;;;;5135486;28;20611;-62
2022/08/30 09:45:35;;;;;;;1.90;1.80;;;25.20;40.00;24.70;96234.00;;;;5135378;28;20196;-60
2022/08/30 09:48:31;;;;;;;1.25;1.15;;;25.10;39.90;25.00;96230.00;;;;5135361;28;20203;-64
2022/08/30 09:51:35;;;;;;;0.88;0.88;;;25.30;39.50;25.10;96227.00;;;;5114534;28;20228;-62
2022/08/30 09:54:13;;;;;;;2.47;1.65;;;25.50;38.60;25.10;96222.00;;;;5120304;28;20217;-62
2022/08/30 09:56:55;;;;;;;0.60;0.60;;;25.40;37.70;25.50;96219.00;;;;5135212;28;20193;-62
2022/08/30 09:59:40;;;;;;;3.22;1.70;;;25.70;36.30;25.70;96234.00;;;;5135234;28;20343;-62
2022/08/30 10:02:46;;;;;;;0.82;0.82;;;25.90;36.30;25.90;96219.00;;;;5135212;28;20251;-62
2022/08/30 10:05:23;;;;;;;1.98;1.80;;;26.10;35.70;26.20;96203.00;;;;5135135;28;20265;-62
2022/08/30 10:08:04;;;;;;;0.93;0.93;;;26.40;35.60;26.20;96218.00;;;;5134966;28;20189;-65
2022/08/30 10:10:40;;;;;;;1.20;1.20;;;26.50;34.30;26.50;96219.00;;;;5134944;28;20224;-62
2022/08/30 10:13:55;;;;;;;0.88;0.88;;;26.70;33.60;26.40;96222.00;;;;5134933;28;20308;-62
2022/08/30 10:16:40;;;;;;;1.35;1.23;;;;;26.60;96206.00;;;;5119790;28;20216;-62
2022/08/30 10:19:35;;;;;;;2.35;2.05;;;26.80;33.40;26.70;96206.00;;;;5134902;28;20272;-64
2022/08/30 10:22:10;;;;;;;1.55;1.45;;;26.90;32.80;26.80;96199.00;;;;5134670;28;20217;-61
2022/08/30 10:24:49;;;;;;;1.13;1.10;;;27.00;32.00;27.10;96193.00;;;;5134792;28;20280;-62
2022/08/30 10:27:21;;;;;;;0.95;0.95;;;27.30;31.10;27.20;96198.00;;;;5116676;28;20229;-64
2022/08/30 10:29:58;;;;;;;1.00;1.00;;;27.40;31.10;26.90;96200.00;;;;5134838;28;20280;-62
2022/08/30 10:32:29;;;;;;;0.80;0.80;;;;;27.00;96192.00;;;;5134615;28;20609;-63
2022/08/30 10:35:03;;;;;;;0.70;0.70;;;27.30;30.90;27.40;96190.00;;;;5134755;28;20201;-62
2022/08/30 10:37:36;;;;;;;1.13;0.65;;;27.60;31.20;27.80;96181.00;;;;5134941;28;20265;-63
2022/08/30 10:42:57;;;;;;;2.60;1.63;;;27.90;29.30;27.90;96174.00;;;;5078397;28;20223;-63
2022/08/30 10:45:26;;;;;;;4.65;0.80;;;28.10;29.30;28.10;96171.00;;;;5134562;28;20273;-62
2022/08/30 10:48:04;;;;;;;1.48;1.40;;;28.20;30.10;28.30;96197.00;;;;5134695;28;20204;-63
2022/08/30 10:50:40;;;;;;;1.15;1.05;;;28.50;27.50;28.00;96188.00;;;;5134376;28;20221;-62
2022/08/30 10:53:14;;;;;;;1.17;1.15;;;28.20;28.60;28.10;96182.00;;;;5114024;28;20248;-63
2022/08/30 10:55:50;;;;;;;1.02;1.02;;;28.30;29.30;28.20;96200.00;;;;5114203;28;20308;-64
2022/08/30 10:58:18;;;;;;;0.82;0.82;;;28.50;28.10;28.20;96168.00;;;;5114026;28;20197;-62
2022/08/30 11:01:04;;;;;;;1.70;1.10;;;28.40;28.10;28.50;96171.00;;;;5095912;28;20577;-63
2022/08/30 11:04:11;;;;;;;0.80;0.80;;;28.60;27.60;29.00;96168.00;;;;5113923;28;20284;-62
2022/08/30 11:06:48;;;;;;;0.80;0.80;;;29.10;26.30;29.50;96180.00;;;;5113770;28;20277;-64
2022/08/30 11:09:43;;;;;;;1.13;0.93;;;29.60;26.20;29.50;96170.00;;;;5096011;28;20205;-63
2022/08/30 11:12:30;;;;;;;0.95;0.95;;;29.60;25.30;29.70;96173.00;;;;5113526;28;20218;-63
2022/08/30 11:14:58;;;;;;;0.80;0.80;;;29.80;25.60;29.50;96187.00;;;;5113723;28;20512;-64
2022/08/30 11:17:30;;;;;;;0.88;0.88;;;29.70;24.60;29.60;96169.00;;;;5113610;28;20196;-63
2022/08/30 11:20:01;;;;;;;0.70;0.70;;;29.80;25.60;29.10;96181.00;;;;5113677;28;20745;-64
2022/08/30 11:22:31;;;;;;;1.00;1.00;;;29.40;25.40;28.70;96182.00;;;;5113709;28;20250;-63
2022/08/30 11:25:14;;;;;;;1.35;1.25;;;29.10;27.40;29.00;96181.00;;;;5113561;28;20225;-64
2022/08/30 11:27:49;;;;;;;1.30;1.20;;;29.30;26.90;28.90;96184.00;;;;5113613;28;20208;-62
2022/08/30 11:30:51;;;;;;;0.55;0.55;;;29.30;27.10;28.50;96186.00;;;;5095286;28;20316;-62
2022/08/30 11:33:46;;;;;;;0.63;0.63;;;28.90;26.80;28.60;96177.00;;;;5113287;28;20217;-63
2022/08/30 11:37:06;;;;;;;0.70;0.70;;;28.80;27.50;28.70;96192.00;;;;5056099;28;20699;-64
2022/08/30 11:40:03;;;;;;;0.80;0.80;;;28.90;27.70;28.70;96194.00;;;;5113300;28;20285;-64
2022/08/30 11:42:37;;;;;;;0.50;0.50;;;29.00;27.80;28.60;96196.00;;;;5113232;28;20649;-63
2022/08/30 11:45:53;;;;;;;1.52;1.40;;;28.80;28.70;28.20;96195.00;;;;5113363;28;20197;-66
2022/08/30 11:48:50;;;;;;;0.70;0.70;;;28.70;27.60;28.10;96192.00;;;;5111420;28;20245;-64
2022/08/30 11:52:04;;;;;;;0.95;0.95;;;28.50;28.70;28.10;96198.00;;;;5113176;28;20201;-64
2022/08/30 11:54:42;;;;;;;0.90;0.90;;;28.50;29.30;28.20;96190.00;;;;5115204;28;20190;-66
2022/08/30 11:57:26;;;;;;;0.90;0.90;;;28.40;28.90;28.30;96197.00;;;;5116627;28;20206;-63
2022/08/30 12:00:07;;;;;;;0.85;0.85;;;28.60;28.90;28.20;96191.00;;;;5116579;28;20591;-63
2022/08/30 12:02:53;;;;;;;0.82;0.82;;;28.60;28.40;28.60;96188.00;;;;5116559;28;20284;-61
2022/08/30 12:05:52;;;;;;;1.27;1.17;;;28.70;28.10;28.90;96177.00;;;;5116634;28;20244;-62
2022/08/30 12:08:52;;;;;;;1.10;1.10;;;29.00;28.20;29.30;96172.00;;;;5116551;28;20602;-64
2022/08/30 12:11:57;;;;;;;0.73;0.73;;;29.40;27.70;29.70;96169.00;;;;5116482;28;20526;-63
2022/08/30 12:14:53;;;;;;;0.80;0.80;;;29.70;27.90;30.10;96176.00;;;;5098460;28;20292;-64
2022/08/30 12:20:27;;;;;;;1.50;1.15;;;30.20;26.50;30.10;96171.00;;;;5116323;28;20190;-64
2022/08/30 12:22:56;;;;;;;3.47;1.17;;;30.30;26.00;30.40;96166.00;;;;5116193;28;20264;-63
2022/08/30 12:25:29;;;;;;;1.35;1.27;;;30.50;25.20;30.50;96144.00;;;;5116121;28;20304;-64
2022/08/30 12:28:11;;;;;;;1.08;1.08;;;30.50;25.30;30.50;96168.00;;;;5098206;28;20279;-63
2022/08/30 12:30:39;;;;;;;1.13;1.13;;;30.60;25.10;30.40;96170.00;;;;5116060;28;20208;-63